sensor_id;sensor_type;location;lat;lon;timestamp;P1;durP1;ratioP1;P2;durP2;ratioP2
42364;SDS011;28498;54.400;18.566;2023-06-14T00:02:04;4.53;;;2.53;;
42364;SDS011;28498;54.400;18.566;2023-06-14T00:04:34;9.52;;;3.15;;
42364;SDS011;28498;54.400;18.566;2023-06-14T00:07:02;4.68;;;2.70;;
42364;SDS011;28498;54.400;18.566;2023-06-14T00:09:30;7.97;;;2.72;;
42364;SDS011;28498;54.400;18.566;2023-06-14T00:11:57;6.88;;;3.00;;
42364;SDS011;28498;54.400;18.566;2023-06-14T00:14:24;14.50;;;3.47;;
42364;SDS011;28498;54.400;18.566;2023-06-14T00:16:51;6.38;;;2.70;;
42364;SDS011;28498;54.400;18.566;2023-06-14T00:19:19;6.80;;;2.67;;
42364;SDS011;28498;54.400;18.566;2023-06-14T00:21:47;4.25;;;2.50;;
42364;SDS011;28498;54.400;18.566;2023-06-14T00:24:15;6.43;;;3.00;;
42364;SDS011;28498;54.400;18.566;2023-06-14T00:26:42;9.93;;;3.63;;
42364;SDS011;28498;54.400;18.566;2023-06-14T00:29:09;6.28;;;2.78;;
42364;SDS011;28498;54.400;18.566;2023-06-14T00:31:36;4.95;;;2.85;;
42364;SDS011;28498;54.400;18.566;2023-06-14T00:34:03;4.45;;;2.70;;
42364;SDS011;28498;54.400;18.566;2023-06-14T00:36:30;8.75;;;3.00;;
42364;SDS011;28498;54.400;18.566;2023-06-14T00:38:57;6.53;;;3.17;;
42364;SDS011;28498;54.400;18.566;2023-06-14T00:41:24;6.18;;;3.00;;
42364;SDS011;28498;54.400;18.566;2023-06-14T00:43:51;5.47;;;3.03;;
42364;SDS011;28498;54.400;18.566;2023-06-14T00:46:19;8.23;;;3.03;;
42364;SDS011;28498;54.400;18.566;2023-06-14T00:48:48;7.07;;;3.30;;
42364;SDS011;28498;54.400;18.566;2023-06-14T00:51:15;5.28;;;2.80;;
42364;SDS011;28498;54.400;18.566;2023-06-14T00:53:43;4.68;;;2.95;;
42364;SDS011;28498;54.400;18.566;2023-06-14T00:56:14;9.00;;;2.90;;
42364;SDS011;28498;54.400;18.566;2023-06-14T00:58:41;8.20;;;3.17;;
42364;SDS011;28498;54.400;18.566;2023-06-14T01:01:08;5.65;;;2.70;;
42364;SDS011;28498;54.400;18.566;2023-06-14T01:03:36;5.68;;;2.72;;
42364;SDS011;28498;54.400;18.566;2023-06-14T01:08:57;4.07;;;2.42;;
42364;SDS011;28498;54.400;18.566;2023-06-14T01:12:01;5.35;;;2.70;;
42364;SDS011;28498;54.400;18.566;2023-06-14T01:14:42;5.65;;;2.72;;
42364;SDS011;28498;54.400;18.566;2023-06-14T01:17:09;4.38;;;2.80;;
42364;SDS011;28498;54.400;18.566;2023-06-14T01:19:43;4.93;;;3.00;;
42364;SDS011;28498;54.400;18.566;2023-06-14T01:22:12;5.65;;;2.80;;
42364;SDS011;28498;54.400;18.566;2023-06-14T01:24:39;8.15;;;3.00;;
42364;SDS011;28498;54.400;18.566;2023-06-14T01:27:11;4.65;;;2.72;;
42364;SDS011;28498;54.400;18.566;2023-06-14T01:29:39;10.55;;;2.70;;
42364;SDS011;28498;54.400;18.566;2023-06-14T01:32:12;4.93;;;2.85;;
42364;SDS011;28498;54.400;18.566;2023-06-14T01:34:39;5.60;;;3.17;;
42364;SDS011;28498;54.400;18.566;2023-06-14T01:37:06;5.43;;;2.50;;
42364;SDS011;28498;54.400;18.566;2023-06-14T01:39:35;7.18;;;2.65;;
42364;SDS011;28498;54.400;18.566;2023-06-14T01:42:02;6.72;;;3.28;;
42364;SDS011;28498;54.400;18.566;2023-06-14T01:44:31;6.07;;;3.30;;
42364;SDS011;28498;54.400;18.566;2023-06-14T01:46:58;7.00;;;3.08;;
42364;SDS011;28498;54.400;18.566;2023-06-14T01:49:25;6.55;;;2.92;;
42364;SDS011;28498;54.400;18.566;2023-06-14T01:51:53;7.40;;;3.30;;
42364;SDS011;28498;54.400;18.566;2023-06-14T01:54:20;4.47;;;2.83;;
42364;SDS011;28498;54.400;18.566;2023-06-14T01:56:48;5.53;;;3.30;;
42364;SDS011;28498;54.400;18.566;2023-06-14T01:59:15;7.72;;;3.22;;
42364;SDS011;28498;54.400;18.566;2023-06-14T02:01:42;6.57;;;3.65;;
42364;SDS011;28498;54.400;18.566;2023-06-14T02:04:09;6.20;;;3.00;;
42364;SDS011;28498;54.400;18.566;2023-06-14T02:06:36;5.55;;;3.05;;
42364;SDS011;28498;54.400;18.566;2023-06-14T02:09:03;7.90;;;3.03;;
42364;SDS011;28498;54.400;18.566;2023-06-14T02:11:30;5.68;;;2.63;;
42364;SDS011;28498;54.400;18.566;2023-06-14T02:13:57;5.70;;;2.78;;
42364;SDS011;28498;54.400;18.566;2023-06-14T02:16:26;8.68;;;3.28;;
42364;SDS011;28498;54.400;18.566;2023-06-14T02:18:56;5.10;;;2.95;;
42364;SDS011;28498;54.400;18.566;2023-06-14T02:21:23;8.63;;;3.17;;
42364;SDS011;28498;54.400;18.566;2023-06-14T02:23:50;7.82;;;3.38;;
42364;SDS011;28498;54.400;18.566;2023-06-14T02:26:18;8.10;;;2.90;;
42364;SDS011;28498;54.400;18.566;2023-06-14T02:28:45;4.70;;;2.83;;
42364;SDS011;28498;54.400;18.566;2023-06-14T02:31:12;6.78;;;3.00;;
42364;SDS011;28498;54.400;18.566;2023-06-14T02:33:39;5.38;;;3.05;;
42364;SDS011;28498;54.400;18.566;2023-06-14T02:36:06;10.15;;;3.35;;
42364;SDS011;28498;54.400;18.566;2023-06-14T02:38:34;6.55;;;3.40;;
42364;SDS011;28498;54.400;18.566;2023-06-14T02:41:01;4.93;;;3.40;;
42364;SDS011;28498;54.400;18.566;2023-06-14T02:43:28;7.82;;;3.78;;
42364;SDS011;28498;54.400;18.566;2023-06-14T02:45:56;5.80;;;3.67;;
42364;SDS011;28498;54.400;18.566;2023-06-14T02:48:23;6.43;;;2.95;;
42364;SDS011;28498;54.400;18.566;2023-06-14T02:50:50;6.07;;;3.40;;
42364;SDS011;28498;54.400;18.566;2023-06-14T02:53:17;6.95;;;3.35;;
42364;SDS011;28498;54.400;18.566;2023-06-14T02:55:45;5.63;;;3.40;;
42364;SDS011;28498;54.400;18.566;2023-06-14T02:58:13;7.50;;;3.47;;
42364;SDS011;28498;54.400;18.566;2023-06-14T03:00:40;7.90;;;3.30;;
42364;SDS011;28498;54.400;18.566;2023-06-14T03:03:09;5.68;;;3.35;;
42364;SDS011;28498;54.400;18.566;2023-06-14T03:05:41;7.32;;;3.88;;
42364;SDS011;28498;54.400;18.566;2023-06-14T03:08:14;6.80;;;3.17;;
42364;SDS011;28498;54.400;18.566;2023-06-14T03:10:43;5.75;;;3.30;;
42364;SDS011;28498;54.400;18.566;2023-06-14T03:13:10;9.27;;;3.50;;
42364;SDS011;28498;54.400;18.566;2023-06-14T03:15:38;8.25;;;3.20;;
42364;SDS011;28498;54.400;18.566;2023-06-14T03:18:08;5.10;;;3.05;;
42364;SDS011;28498;54.400;18.566;2023-06-14T03:20:35;6.18;;;3.20;;
42364;SDS011;28498;54.400;18.566;2023-06-14T03:23:03;7.75;;;3.20;;
42364;SDS011;28498;54.400;18.566;2023-06-14T03:25:31;7.85;;;3.28;;
42364;SDS011;28498;54.400;18.566;2023-06-14T03:28:02;7.00;;;3.78;;
42364;SDS011;28498;54.400;18.566;2023-06-14T03:30:29;8.07;;;3.50;;
42364;SDS011;28498;54.400;18.566;2023-06-14T03:32:57;6.95;;;3.53;;
42364;SDS011;28498;54.400;18.566;2023-06-14T03:35:28;10.27;;;3.70;;
42364;SDS011;28498;54.400;18.566;2023-06-14T03:37:55;7.75;;;3.67;;
42364;SDS011;28498;54.400;18.566;2023-06-14T03:40:22;5.72;;;3.40;;
42364;SDS011;28498;54.400;18.566;2023-06-14T03:42:55;7.40;;;3.95;;
42364;SDS011;28498;54.400;18.566;2023-06-14T03:45:23;6.47;;;3.45;;
42364;SDS011;28498;54.400;18.566;2023-06-14T03:47:50;7.97;;;4.03;;
42364;SDS011;28498;54.400;18.566;2023-06-14T03:50:18;6.13;;;3.55;;
42364;SDS011;28498;54.400;18.566;2023-06-14T03:52:47;6.22;;;3.75;;
42364;SDS011;28498;54.400;18.566;2023-06-14T03:55:17;9.88;;;3.53;;
42364;SDS011;28498;54.400;18.566;2023-06-14T03:57:47;5.63;;;3.22;;
42364;SDS011;28498;54.400;18.566;2023-06-14T04:00:14;7.43;;;3.38;;
42364;SDS011;28498;54.400;18.566;2023-06-14T04:02:41;7.93;;;4.05;;
42364;SDS011;28498;54.400;18.566;2023-06-14T04:05:10;6.38;;;3.17;;
42364;SDS011;28498;54.400;18.566;2023-06-14T04:07:38;7.97;;;3.28;;
42364;SDS011;28498;54.400;18.566;2023-06-14T04:10:12;7.93;;;4.03;;
42364;SDS011;28498;54.400;18.566;2023-06-14T04:12:39;7.25;;;3.20;;
42364;SDS011;28498;54.400;18.566;2023-06-14T04:15:09;6.65;;;3.38;;
42364;SDS011;28498;54.400;18.566;2023-06-14T04:17:46;8.20;;;3.70;;
42364;SDS011;28498;54.400;18.566;2023-06-14T04:20:14;8.25;;;4.40;;
42364;SDS011;28498;54.400;18.566;2023-06-14T04:22:41;7.13;;;3.67;;
42364;SDS011;28498;54.400;18.566;2023-06-14T04:25:09;9.05;;;4.00;;
42364;SDS011;28498;54.400;18.566;2023-06-14T04:27:38;5.38;;;3.30;;
42364;SDS011;28498;54.400;18.566;2023-06-14T04:30:06;12.05;;;4.47;;
42364;SDS011;28498;54.400;18.566;2023-06-14T04:32:34;7.07;;;3.53;;
42364;SDS011;28498;54.400;18.566;2023-06-14T04:35:06;7.47;;;3.40;;
42364;SDS011;28498;54.400;18.566;2023-06-14T04:37:34;7.55;;;3.20;;
42364;SDS011;28498;54.400;18.566;2023-06-14T04:40:01;8.32;;;3.63;;
42364;SDS011;28498;54.400;18.566;2023-06-14T04:42:31;8.13;;;3.55;;
42364;SDS011;28498;54.400;18.566;2023-06-14T04:44:58;7.28;;;3.88;;
42364;SDS011;28498;54.400;18.566;2023-06-14T04:47:25;9.25;;;3.80;;
42364;SDS011;28498;54.400;18.566;2023-06-14T04:49:56;8.30;;;3.67;;
42364;SDS011;28498;54.400;18.566;2023-06-14T04:52:24;6.70;;;3.85;;
42364;SDS011;28498;54.400;18.566;2023-06-14T04:54:52;5.82;;;3.53;;
42364;SDS011;28498;54.400;18.566;2023-06-14T04:57:21;6.50;;;3.05;;
42364;SDS011;28498;54.400;18.566;2023-06-14T04:59:48;8.10;;;3.38;;
42364;SDS011;28498;54.400;18.566;2023-06-14T05:02:22;10.02;;;3.85;;
42364;SDS011;28498;54.400;18.566;2023-06-14T05:04:50;7.43;;;3.55;;
42364;SDS011;28498;54.400;18.566;2023-06-14T05:07:17;10.15;;;4.15;;
42364;SDS011;28498;54.400;18.566;2023-06-14T05:09:45;8.45;;;3.38;;
42364;SDS011;28498;54.400;18.566;2023-06-14T05:12:12;8.38;;;4.22;;
42364;SDS011;28498;54.400;18.566;2023-06-14T05:14:39;7.10;;;3.70;;
42364;SDS011;28498;54.400;18.566;2023-06-14T05:17:06;7.63;;;3.83;;
42364;SDS011;28498;54.400;18.566;2023-06-14T05:19:33;11.63;;;5.30;;
42364;SDS011;28498;54.400;18.566;2023-06-14T05:22:00;11.60;;;4.70;;
42364;SDS011;28498;54.400;18.566;2023-06-14T05:24:29;9.63;;;4.63;;
42364;SDS011;28498;54.400;18.566;2023-06-14T05:26:57;11.85;;;5.03;;
42364;SDS011;28498;54.400;18.566;2023-06-14T05:29:24;11.10;;;6.05;;
42364;SDS011;28498;54.400;18.566;2023-06-14T05:31:55;10.60;;;5.28;;
42364;SDS011;28498;54.400;18.566;2023-06-14T05:34:23;11.63;;;5.10;;
42364;SDS011;28498;54.400;18.566;2023-06-14T05:36:50;11.63;;;4.95;;
42364;SDS011;28498;54.400;18.566;2023-06-14T05:39:17;9.75;;;5.07;;
42364;SDS011;28498;54.400;18.566;2023-06-14T05:41:44;9.38;;;4.65;;
42364;SDS011;28498;54.400;18.566;2023-06-14T05:44:14;9.00;;;4.25;;
42364;SDS011;28498;54.400;18.566;2023-06-14T05:46:41;10.27;;;5.22;;
42364;SDS011;28498;54.400;18.566;2023-06-14T05:49:08;10.13;;;4.40;;
42364;SDS011;28498;54.400;18.566;2023-06-14T05:51:35;13.55;;;4.85;;
42364;SDS011;28498;54.400;18.566;2023-06-14T05:54:02;11.07;;;4.15;;
42364;SDS011;28498;54.400;18.566;2023-06-14T05:56:29;15.05;;;5.60;;
42364;SDS011;28498;54.400;18.566;2023-06-14T05:58:56;11.93;;;4.68;;
42364;SDS011;28498;54.400;18.566;2023-06-14T06:01:24;15.70;;;4.80;;
42364;SDS011;28498;54.400;18.566;2023-06-14T06:03:51;11.23;;;5.40;;
42364;SDS011;28498;54.400;18.566;2023-06-14T06:06:19;11.45;;;6.07;;
42364;SDS011;28498;54.400;18.566;2023-06-14T06:08:46;12.80;;;5.70;;
42364;SDS011;28498;54.400;18.566;2023-06-14T06:11:13;11.95;;;5.10;;
42364;SDS011;28498;54.400;18.566;2023-06-14T06:13:40;11.95;;;5.70;;
42364;SDS011;28498;54.400;18.566;2023-06-14T06:16:08;17.52;;;6.15;;
42364;SDS011;28498;54.400;18.566;2023-06-14T06:18:35;10.82;;;5.93;;
42364;SDS011;28498;54.400;18.566;2023-06-14T06:21:03;11.23;;;5.95;;
42364;SDS011;28498;54.400;18.566;2023-06-14T06:23:31;15.25;;;5.97;;
42364;SDS011;28498;54.400;18.566;2023-06-14T06:25:58;13.38;;;5.93;;
42364;SDS011;28498;54.400;18.566;2023-06-14T06:28:25;12.52;;;5.90;;
42364;SDS011;28498;54.400;18.566;2023-06-14T06:30:52;19.45;;;6.80;;
42364;SDS011;28498;54.400;18.566;2023-06-14T06:33:20;18.83;;;7.35;;
42364;SDS011;28498;54.400;18.566;2023-06-14T06:35:47;14.80;;;6.60;;
42364;SDS011;28498;54.400;18.566;2023-06-14T06:38:15;13.93;;;5.80;;
42364;SDS011;28498;54.400;18.566;2023-06-14T06:40:44;14.43;;;6.07;;
42364;SDS011;28498;54.400;18.566;2023-06-14T06:43:11;11.60;;;5.47;;
42364;SDS011;28498;54.400;18.566;2023-06-14T06:45:43;12.25;;;5.85;;
42364;SDS011;28498;54.400;18.566;2023-06-14T06:48:10;11.70;;;6.35;;
42364;SDS011;28498;54.400;18.566;2023-06-14T06:50:37;10.77;;;5.78;;
42364;SDS011;28498;54.400;18.566;2023-06-14T06:53:05;14.00;;;6.22;;
42364;SDS011;28498;54.400;18.566;2023-06-14T06:55:33;12.68;;;6.05;;
42364;SDS011;28498;54.400;18.566;2023-06-14T06:58:00;14.15;;;6.28;;
42364;SDS011;28498;54.400;18.566;2023-06-14T07:00:27;12.68;;;6.57;;
42364;SDS011;28498;54.400;18.566;2023-06-14T07:02:55;18.10;;;5.72;;
42364;SDS011;28498;54.400;18.566;2023-06-14T07:05:23;12.30;;;5.97;;
42364;SDS011;28498;54.400;18.566;2023-06-14T07:07:51;13.18;;;5.47;;
42364;SDS011;28498;54.400;18.566;2023-06-14T07:10:19;13.82;;;6.50;;
42364;SDS011;28498;54.400;18.566;2023-06-14T07:12:46;22.55;;;7.18;;
42364;SDS011;28498;54.400;18.566;2023-06-14T07:15:13;13.52;;;5.20;;
42364;SDS011;28498;54.400;18.566;2023-06-14T07:17:41;11.55;;;5.30;;
42364;SDS011;28498;54.400;18.566;2023-06-14T07:20:09;11.38;;;5.50;;
42364;SDS011;28498;54.400;18.566;2023-06-14T07:22:40;13.25;;;5.05;;
42364;SDS011;28498;54.400;18.566;2023-06-14T07:25:09;10.20;;;4.72;;
42364;SDS011;28498;54.400;18.566;2023-06-14T07:27:42;12.18;;;5.15;;
42364;SDS011;28498;54.400;18.566;2023-06-14T07:30:10;13.35;;;5.78;;
42364;SDS011;28498;54.400;18.566;2023-06-14T07:32:37;10.88;;;4.80;;
42364;SDS011;28498;54.400;18.566;2023-06-14T07:35:05;10.35;;;5.53;;
42364;SDS011;28498;54.400;18.566;2023-06-14T07:37:33;10.23;;;5.47;;
42364;SDS011;28498;54.400;18.566;2023-06-14T07:40:00;12.32;;;5.40;;
42364;SDS011;28498;54.400;18.566;2023-06-14T07:42:29;10.50;;;5.32;;
42364;SDS011;28498;54.400;18.566;2023-06-14T07:44:56;11.82;;;5.78;;
42364;SDS011;28498;54.400;18.566;2023-06-14T07:47:23;12.57;;;5.03;;
42364;SDS011;28498;54.400;18.566;2023-06-14T07:49:51;10.13;;;5.43;;
42364;SDS011;28498;54.400;18.566;2023-06-14T07:52:19;14.77;;;5.28;;
42364;SDS011;28498;54.400;18.566;2023-06-14T07:54:46;11.70;;;5.20;;
42364;SDS011;28498;54.400;18.566;2023-06-14T07:57:13;9.00;;;4.75;;
42364;SDS011;28498;54.400;18.566;2023-06-14T07:59:41;14.63;;;5.55;;
42364;SDS011;28498;54.400;18.566;2023-06-14T08:02:08;11.63;;;5.18;;
42364;SDS011;28498;54.400;18.566;2023-06-14T08:04:35;14.30;;;5.60;;
42364;SDS011;28498;54.400;18.566;2023-06-14T08:07:02;14.82;;;5.97;;
42364;SDS011;28498;54.400;18.566;2023-06-14T08:09:33;15.68;;;5.78;;
42364;SDS011;28498;54.400;18.566;2023-06-14T08:12:00;12.32;;;6.50;;
42364;SDS011;28498;54.400;18.566;2023-06-14T08:14:27;14.80;;;5.53;;
42364;SDS011;28498;54.400;18.566;2023-06-14T08:16:55;10.10;;;5.50;;
42364;SDS011;28498;54.400;18.566;2023-06-14T08:19:22;12.60;;;6.10;;
42364;SDS011;28498;54.400;18.566;2023-06-14T08:21:49;14.05;;;6.03;;
42364;SDS011;28498;54.400;18.566;2023-06-14T08:24:17;15.52;;;5.90;;
42364;SDS011;28498;54.400;18.566;2023-06-14T08:26:45;17.25;;;7.07;;
42364;SDS011;28498;54.400;18.566;2023-06-14T08:29:12;14.48;;;6.25;;
42364;SDS011;28498;54.400;18.566;2023-06-14T08:31:40;13.55;;;6.95;;
42364;SDS011;28498;54.400;18.566;2023-06-14T08:34:07;17.05;;;6.47;;
42364;SDS011;28498;54.400;18.566;2023-06-14T08:36:35;18.95;;;7.45;;
42364;SDS011;28498;54.400;18.566;2023-06-14T08:39:02;16.80;;;7.38;;
42364;SDS011;28498;54.400;18.566;2023-06-14T08:41:29;14.98;;;6.90;;
42364;SDS011;28498;54.400;18.566;2023-06-14T08:43:57;18.75;;;7.22;;
42364;SDS011;28498;54.400;18.566;2023-06-14T08:46:25;18.38;;;7.13;;
42364;SDS011;28498;54.400;18.566;2023-06-14T08:48:55;18.00;;;8.07;;
42364;SDS011;28498;54.400;18.566;2023-06-14T08:51:23;15.63;;;8.35;;
42364;SDS011;28498;54.400;18.566;2023-06-14T08:53:54;19.45;;;8.25;;
42364;SDS011;28498;54.400;18.566;2023-06-14T08:56:25;20.95;;;10.10;;
42364;SDS011;28498;54.400;18.566;2023-06-14T08:58:54;33.15;;;16.35;;
42364;SDS011;28498;54.400;18.566;2023-06-14T09:01:23;58.13;;;25.60;;
42364;SDS011;28498;54.400;18.566;2023-06-14T09:03:50;65.05;;;27.65;;
42364;SDS011;28498;54.400;18.566;2023-06-14T09:06:18;56.50;;;25.95;;
42364;SDS011;28498;54.400;18.566;2023-06-14T09:08:49;65.55;;;26.67;;
42364;SDS011;28498;54.400;18.566;2023-06-14T09:11:17;53.40;;;24.38;;
42364;SDS011;28498;54.400;18.566;2023-06-14T09:13:46;47.30;;;21.45;;
42364;SDS011;28498;54.400;18.566;2023-06-14T09:16:13;45.85;;;19.05;;
42364;SDS011;28498;54.400;18.566;2023-06-14T09:18:44;39.65;;;15.75;;
42364;SDS011;28498;54.400;18.566;2023-06-14T09:21:15;29.20;;;13.07;;
42364;SDS011;28498;54.400;18.566;2023-06-14T09:23:45;26.92;;;12.40;;
42364;SDS011;28498;54.400;18.566;2023-06-14T09:26:17;16.67;;;9.10;;
42364;SDS011;28498;54.400;18.566;2023-06-14T09:28:47;23.30;;;10.30;;
42364;SDS011;28498;54.400;18.566;2023-06-14T09:31:16;22.13;;;9.05;;
42364;SDS011;28498;54.400;18.566;2023-06-14T09:33:45;13.40;;;6.88;;
42364;SDS011;28498;54.400;18.566;2023-06-14T09:36:24;21.20;;;7.30;;
42364;SDS011;28498;54.400;18.566;2023-06-14T09:38:56;16.30;;;6.80;;
42364;SDS011;28498;54.400;18.566;2023-06-14T09:44:00;13.38;;;6.72;;
42364;SDS011;28498;54.400;18.566;2023-06-14T09:46:34;9.05;;;4.55;;
42364;SDS011;28498;54.400;18.566;2023-06-14T09:49:02;9.25;;;4.60;;
42364;SDS011;28498;54.400;18.566;2023-06-14T09:51:30;9.10;;;5.13;;
42364;SDS011;28498;54.400;18.566;2023-06-14T09:53:58;13.00;;;5.25;;
42364;SDS011;28498;54.400;18.566;2023-06-14T09:56:44;8.40;;;3.67;;
42364;SDS011;28498;54.400;18.566;2023-06-14T09:59:13;11.73;;;5.45;;
42364;SDS011;28498;54.400;18.566;2023-06-14T10:01:43;14.95;;;5.85;;
42364;SDS011;28498;54.400;18.566;2023-06-14T10:04:11;7.97;;;4.90;;
42364;SDS011;28498;54.400;18.566;2023-06-14T10:06:43;10.48;;;5.28;;
42364;SDS011;28498;54.400;18.566;2023-06-14T10:09:13;14.70;;;5.78;;
42364;SDS011;28498;54.400;18.566;2023-06-14T10:11:40;11.93;;;5.47;;
42364;SDS011;28498;54.400;18.566;2023-06-14T10:14:11;12.10;;;6.80;;
42364;SDS011;28498;54.400;18.566;2023-06-14T10:16:57;14.80;;;6.00;;
42364;SDS011;28498;54.400;18.566;2023-06-14T10:22:14;16.60;;;6.90;;
42364;SDS011;28498;54.400;18.566;2023-06-14T10:24:46;10.27;;;5.03;;
42364;SDS011;28498;54.400;18.566;2023-06-14T10:27:15;11.80;;;5.13;;
42364;SDS011;28498;54.400;18.566;2023-06-14T10:32:20;8.98;;;5.00;;
42364;SDS011;28498;54.400;18.566;2023-06-14T10:37:45;17.63;;;6.45;;
42364;SDS011;28498;54.400;18.566;2023-06-14T10:40:34;13.65;;;5.95;;
42364;SDS011;28498;54.400;18.566;2023-06-14T10:43:01;17.40;;;6.00;;
42364;SDS011;28498;54.400;18.566;2023-06-14T10:48:42;12.10;;;5.63;;
42364;SDS011;28498;54.400;18.566;2023-06-14T10:51:17;23.25;;;9.23;;
42364;SDS011;28498;54.400;18.566;2023-06-14T10:53:47;13.25;;;6.45;;
42364;SDS011;28498;54.400;18.566;2023-06-14T10:56:28;11.48;;;4.65;;
42364;SDS011;28498;54.400;18.566;2023-06-14T10:58:57;9.18;;;3.47;;
42364;SDS011;28498;54.400;18.566;2023-06-14T11:01:31;7.53;;;3.63;;
42364;SDS011;28498;54.400;18.566;2023-06-14T11:04:09;11.15;;;3.60;;
42364;SDS011;28498;54.400;18.566;2023-06-14T11:06:47;8.23;;;4.05;;
42364;SDS011;28498;54.400;18.566;2023-06-14T11:12:05;9.90;;;4.03;;
42364;SDS011;28498;54.400;18.566;2023-06-14T11:14:38;9.60;;;3.90;;
42364;SDS011;28498;54.400;18.566;2023-06-14T11:17:05;12.75;;;3.70;;
42364;SDS011;28498;54.400;18.566;2023-06-14T11:19:32;8.70;;;4.10;;
42364;SDS011;28498;54.400;18.566;2023-06-14T11:22:00;7.72;;;3.60;;
42364;SDS011;28498;54.400;18.566;2023-06-14T11:24:27;7.75;;;3.60;;
42364;SDS011;28498;54.400;18.566;2023-06-14T11:26:54;9.52;;;3.83;;
42364;SDS011;28498;54.400;18.566;2023-06-14T11:29:23;9.38;;;4.05;;
42364;SDS011;28498;54.400;18.566;2023-06-14T11:31:51;9.60;;;4.57;;
42364;SDS011;28498;54.400;18.566;2023-06-14T11:34:18;8.93;;;3.67;;
42364;SDS011;28498;54.400;18.566;2023-06-14T11:36:46;9.23;;;3.83;;
42364;SDS011;28498;54.400;18.566;2023-06-14T11:39:14;8.40;;;3.92;;
42364;SDS011;28498;54.400;18.566;2023-06-14T11:41:44;9.07;;;4.00;;
42364;SDS011;28498;54.400;18.566;2023-06-14T11:44:12;6.55;;;3.65;;
42364;SDS011;28498;54.400;18.566;2023-06-14T11:46:39;5.82;;;3.63;;
42364;SDS011;28498;54.400;18.566;2023-06-14T11:49:06;5.97;;;4.05;;
42364;SDS011;28498;54.400;18.566;2023-06-14T11:51:35;8.98;;;3.80;;
42364;SDS011;28498;54.400;18.566;2023-06-14T11:54:03;7.03;;;3.47;;
42364;SDS011;28498;54.400;18.566;2023-06-14T11:56:32;9.02;;;3.75;;
42364;SDS011;28498;54.400;18.566;2023-06-14T11:59:00;12.48;;;3.45;;
42364;SDS011;28498;54.400;18.566;2023-06-14T12:01:29;10.15;;;4.03;;
42364;SDS011;28498;54.400;18.566;2023-06-14T12:03:58;8.05;;;3.85;;
42364;SDS011;28498;54.400;18.566;2023-06-14T12:06:27;5.63;;;3.25;;
42364;SDS011;28498;54.400;18.566;2023-06-14T12:08:58;5.72;;;3.25;;
42364;SDS011;28498;54.400;18.566;2023-06-14T12:11:32;9.20;;;3.45;;
42364;SDS011;28498;54.400;18.566;2023-06-14T12:14:02;6.32;;;2.88;;
42364;SDS011;28498;54.400;18.566;2023-06-14T12:16:33;12.90;;;3.97;;
42364;SDS011;28498;54.400;18.566;2023-06-14T12:19:08;8.38;;;3.53;;
42364;SDS011;28498;54.400;18.566;2023-06-14T12:21:39;8.05;;;3.17;;
42364;SDS011;28498;54.400;18.566;2023-06-14T12:24:09;8.68;;;4.03;;
42364;SDS011;28498;54.400;18.566;2023-06-14T12:26:40;6.65;;;3.20;;
42364;SDS011;28498;54.400;18.566;2023-06-14T12:29:07;7.80;;;3.60;;
42364;SDS011;28498;54.400;18.566;2023-06-14T12:31:35;6.10;;;3.25;;
42364;SDS011;28498;54.400;18.566;2023-06-14T12:34:02;5.50;;;3.40;;
42364;SDS011;28498;54.400;18.566;2023-06-14T12:36:29;10.75;;;3.55;;
42364;SDS011;28498;54.400;18.566;2023-06-14T12:38:58;6.32;;;3.20;;
42364;SDS011;28498;54.400;18.566;2023-06-14T12:41:25;7.53;;;3.22;;
42364;SDS011;28498;54.400;18.566;2023-06-14T12:43:53;8.85;;;3.30;;
42364;SDS011;28498;54.400;18.566;2023-06-14T12:46:20;7.15;;;3.28;;
42364;SDS011;28498;54.400;18.566;2023-06-14T12:48:48;6.93;;;2.60;;
42364;SDS011;28498;54.400;18.566;2023-06-14T12:51:16;6.18;;;3.20;;
42364;SDS011;28498;54.400;18.566;2023-06-14T12:53:43;8.23;;;3.28;;
42364;SDS011;28498;54.400;18.566;2023-06-14T12:56:10;8.90;;;3.47;;
42364;SDS011;28498;54.400;18.566;2023-06-14T12:58:37;7.95;;;3.38;;
42364;SDS011;28498;54.400;18.566;2023-06-14T13:01:04;4.60;;;3.00;;
42364;SDS011;28498;54.400;18.566;2023-06-14T13:03:32;8.02;;;3.10;;
42364;SDS011;28498;54.400;18.566;2023-06-14T13:06:00;4.72;;;2.78;;
42364;SDS011;28498;54.400;18.566;2023-06-14T13:08:29;6.25;;;3.20;;
42364;SDS011;28498;54.400;18.566;2023-06-14T13:10:57;5.93;;;3.00;;
42364;SDS011;28498;54.400;18.566;2023-06-14T13:13:24;7.20;;;3.05;;
42364;SDS011;28498;54.400;18.566;2023-06-14T13:15:51;8.65;;;3.33;;
42364;SDS011;28498;54.400;18.566;2023-06-14T13:18:18;9.77;;;3.40;;
42364;SDS011;28498;54.400;18.566;2023-06-14T13:20:45;7.07;;;3.25;;
42364;SDS011;28498;54.400;18.566;2023-06-14T13:23:13;7.35;;;3.38;;
42364;SDS011;28498;54.400;18.566;2023-06-14T13:25:42;7.95;;;3.72;;
42364;SDS011;28498;54.400;18.566;2023-06-14T13:28:09;8.80;;;3.15;;
42364;SDS011;28498;54.400;18.566;2023-06-14T13:30:36;9.35;;;3.58;;
42364;SDS011;28498;54.400;18.566;2023-06-14T13:33:04;6.28;;;2.80;;
42364;SDS011;28498;54.400;18.566;2023-06-14T13:35:31;7.97;;;3.00;;
42364;SDS011;28498;54.400;18.566;2023-06-14T13:37:58;12.27;;;3.33;;
42364;SDS011;28498;54.400;18.566;2023-06-14T13:40:25;6.35;;;3.05;;
42364;SDS011;28498;54.400;18.566;2023-06-14T13:42:52;7.00;;;3.22;;
42364;SDS011;28498;54.400;18.566;2023-06-14T13:45:19;7.13;;;2.80;;
42364;SDS011;28498;54.400;18.566;2023-06-14T13:47:46;4.75;;;3.13;;
42364;SDS011;28498;54.400;18.566;2023-06-14T13:50:15;9.13;;;3.15;;
42364;SDS011;28498;54.400;18.566;2023-06-14T13:52:43;10.90;;;3.47;;
42364;SDS011;28498;54.400;18.566;2023-06-14T13:55:10;7.15;;;3.05;;
42364;SDS011;28498;54.400;18.566;2023-06-14T13:57:37;8.18;;;3.25;;
42364;SDS011;28498;54.400;18.566;2023-06-14T14:00:04;12.70;;;3.28;;
42364;SDS011;28498;54.400;18.566;2023-06-14T14:02:32;7.07;;;3.30;;
42364;SDS011;28498;54.400;18.566;2023-06-14T14:04:59;6.20;;;3.35;;
42364;SDS011;28498;54.400;18.566;2023-06-14T14:07:26;6.40;;;2.83;;
42364;SDS011;28498;54.400;18.566;2023-06-14T14:09:56;8.63;;;3.30;;
42364;SDS011;28498;54.400;18.566;2023-06-14T14:12:24;6.28;;;3.20;;
42364;SDS011;28498;54.400;18.566;2023-06-14T14:14:51;9.50;;;3.30;;
42364;SDS011;28498;54.400;18.566;2023-06-14T14:17:18;6.25;;;3.33;;
42364;SDS011;28498;54.400;18.566;2023-06-14T14:19:46;9.18;;;3.00;;
42364;SDS011;28498;54.400;18.566;2023-06-14T14:22:13;5.38;;;2.85;;
42364;SDS011;28498;54.400;18.566;2023-06-14T14:24:41;10.25;;;3.55;;
42364;SDS011;28498;54.400;18.566;2023-06-14T14:27:09;5.82;;;3.65;;
42364;SDS011;28498;54.400;18.566;2023-06-14T14:29:36;5.07;;;2.72;;
42364;SDS011;28498;54.400;18.566;2023-06-14T14:32:04;6.10;;;3.35;;
42364;SDS011;28498;54.400;18.566;2023-06-14T14:34:31;5.95;;;2.78;;
42364;SDS011;28498;54.400;18.566;2023-06-14T14:36:59;7.55;;;3.17;;
42364;SDS011;28498;54.400;18.566;2023-06-14T14:39:26;6.65;;;2.97;;
42364;SDS011;28498;54.400;18.566;2023-06-14T14:41:53;5.22;;;2.00;;
42364;SDS011;28498;54.400;18.566;2023-06-14T14:44:20;6.60;;;2.58;;
42364;SDS011;28498;54.400;18.566;2023-06-14T14:46:48;5.70;;;2.78;;
42364;SDS011;28498;54.400;18.566;2023-06-14T14:49:15;5.80;;;2.60;;
42364;SDS011;28498;54.400;18.566;2023-06-14T14:51:42;6.03;;;2.40;;
42364;SDS011;28498;54.400;18.566;2023-06-14T14:54:09;7.75;;;2.92;;
42364;SDS011;28498;54.400;18.566;2023-06-14T14:56:36;5.68;;;2.65;;